Brooklands — D5MP8 — position and weather

sailwx.info

Track history (hours):
 
Tides and Currents Weather Stations Pressure Air Temp Water Temp Dewpoint Dewpoint Depression Visibility Wind Speed Wind Dir Waves Ship Positions

Brooklands

Last reported at 2017-Nov-17 03:51 UTC. Time now 2017-Nov-17 19:40 UTC.
Position N 31°03' E 032°19'.

Length 199 m; draft 8.9 m.

Type: Cargo ship. MMSI: 636017767.

Date/timePositionNaut miles runAvg speedWind from/ knotsBaromVisibWave heightAir tempDewpointWater temp
2017-Nov-17 03:51N 31°03' E 032°19'17 7.3
2017-Nov-17 01:35N 31°19' E 032°22'3 0.6
2017-Nov-16 20:28N 31°22' E 032°20'0 0.0
2017-Nov-16 19:58N 31°22' E 032°20'0 0.0
2017-Nov-16 18:04N 31°22' E 032°20'0 0.6
2017-Nov-16 17:57N 31°22' E 032°20'5 6.6
2017-Nov-16 17:12N 31°26' E 032°17'412.3
2017-Nov-16 16:53N 31°30' E 032°15'513.9
2017-Nov-16 16:30N 31°33' E 032°10'816.8
2017-Nov-16 16:00N 31°39' E 032°03'918.2
2017-Nov-16 15:30N 31°46' E 031°55'1018.5
2017-Nov-16 14:58N 31°51' E 031°46'1018.5
2017-Nov-16 14:25N 31°59' E 031°38'  
2017-Nov-13 02:00N 45°33' E 013°44'0 0.0
2017-Nov-13 01:30N 45°33' E 013°44'0 0.0
2017-Nov-13 01:00N 45°33' E 013°44'0 0.0
2017-Nov-13 00:30N 45°33' E 013°44'0 0.0
2017-Nov-13 00:00N 45°33' E 013°44'0 0.0
2017-Nov-12 23:30N 45°33' E 013°44'0 0.0
2017-Nov-12 23:00N 45°33' E 013°44'0 0.0
2017-Nov-12 22:27N 45°33' E 013°44'0 0.0
2017-Nov-12 22:00N 45°33' E 013°44'0 0.0
2017-Nov-12 21:30N 45°33' E 013°44'0 0.0
2017-Nov-12 21:00N 45°33' E 013°44'0 0.0
2017-Nov-12 20:30N 45°33' E 013°44'0 0.0
2017-Nov-12 20:00N 45°33' E 013°44'0 0.0
2017-Nov-12 19:30N 45°33' E 013°44'0 0.0
2017-Nov-12 19:00N 45°33' E 013°44'0 0.0
2017-Nov-12 18:30N 45°33' E 013°44'0 0.0
2017-Nov-12 18:00N 45°33' E 013°44'0 0.0
2017-Nov-12 17:30N 45°33' E 013°44'0 0.0
2017-Nov-12 17:00N 45°33' E 013°44'0 0.0
2017-Nov-12 16:30N 45°33' E 013°44'0 0.0
2017-Nov-12 16:00N 45°33' E 013°44'0 0.0
2017-Nov-12 15:27N 45°33' E 013°44'0 0.0
2017-Nov-12 15:00N 45°33' E 013°44'0 0.0
2017-Nov-12 14:30N 45°33' E 013°44'0 0.0
2017-Nov-12 14:00N 45°33' E 013°44'0 0.0
2017-Nov-12 13:30N 45°33' E 013°44'0 0.0
2017-Nov-12 13:00N 45°33' E 013°44'0 0.0
2017-Nov-12 12:30N 45°33' E 013°44'0 0.0
2017-Nov-12 12:00N 45°33' E 013°44'0 0.0
2017-Nov-12 11:27N 45°33' E 013°44'0 0.0
2017-Nov-12 10:57N 45°33' E 013°44'0 0.0
2017-Nov-12 10:30N 45°33' E 013°44'0 0.0
2017-Nov-12 10:00N 45°33' E 013°44'0 0.0
2017-Nov-12 09:30N 45°33' E 013°44'0 0.0
2017-Nov-12 08:57N 45°33' E 013°44'0 0.0
2017-Nov-12 08:30N 45°33' E 013°44'0 0.0
2017-Nov-12 07:51N 45°33' E 013°44'0 0.0
2017-Nov-12 07:30N 45°33' E 013°44'0 0.0
2017-Nov-12 07:00N 45°33' E 013°44'0 0.0
2017-Nov-12 06:21N 45°33' E 013°44'0 0.0
2017-Nov-12 05:54N 45°33' E 013°44'0 0.0
2017-Nov-12 05:30N 45°33' E 013°44'0 0.0
2017-Nov-12 05:00N 45°33' E 013°44'0 0.0
2017-Nov-12 04:27N 45°33' E 013°44'0 0.0
2017-Nov-12 04:00N 45°33' E 013°44'0 0.0
2017-Nov-12 03:30N 45°33' E 013°44'0 0.0
2017-Nov-12 03:00N 45°33' E 013°44'0 0.0
2017-Nov-12 02:30N 45°33' E 013°44'0 0.0
2017-Nov-12 02:00N 45°33' E 013°44'0 0.0
2017-Nov-12 01:30N 45°33' E 013°44'0 0.0
2017-Nov-12 00:54N 45°33' E 013°44'0 0.0
2017-Nov-12 00:30N 45°33' E 013°44'0 0.0
2017-Nov-11 23:57N 45°33' E 013°44'0 0.0
2017-Nov-11 23:24N 45°33' E 013°44'0 0.0
2017-Nov-11 23:00N 45°33' E 013°44'0 0.0
2017-Nov-11 22:30N 45°33' E 013°44'0 0.0
2017-Nov-11 22:00N 45°33' E 013°44'0 0.0
2017-Nov-11 21:30N 45°33' E 013°44'0 0.0
2017-Nov-11 20:57N 45°33' E 013°44'0 0.0
2017-Nov-11 20:30N 45°33' E 013°44'0 0.0
2017-Nov-11 20:00N 45°33' E 013°44'0 0.0
2017-Nov-11 19:30N 45°33' E 013°44'0 0.0
2017-Nov-11 19:00N 45°33' E 013°44'0 0.0
2017-Nov-11 18:30N 45°33' E 013°44'0 0.0
2017-Nov-11 18:00N 45°33' E 013°44'1 2.0
2017-Nov-11 17:31N 45°33' E 013°43'2 3.4
2017-Nov-11 17:00N 45°34' E 013°41'1 1.2
2017-Nov-11 16:23N 45°35' E 013°41'0 0.0
2017-Nov-11 15:53N 45°35' E 013°41'0 0.0
2017-Nov-11 15:20N 45°35' E 013°41'0 0.0
2017-Nov-11 14:59N 45°35' E 013°41'0 0.0
2017-Nov-11 14:29N 45°35' E 013°41'0 0.0
2017-Nov-11 13:59N 45°35' E 013°41'0 0.0
2017-Nov-11 13:26N 45°35' E 013°41'0 0.0
2017-Nov-11 12:56N 45°35' E 013°41'0 0.0
2017-Nov-11 12:26N 45°35' E 013°41'0 0.0
2017-Nov-11 11:44N 45°35' E 013°41'0 0.0
2017-Nov-11 11:26N 45°35' E 013°41'0 0.0
2017-Nov-11 10:56N 45°35' E 013°41'0 0.0
2017-Nov-11 10:26N 45°35' E 013°41'0 0.0
2017-Nov-11 09:50N 45°35' E 013°41'0 0.0
2017-Nov-11 09:29N 45°35' E 013°41'0 0.0
2017-Nov-11 08:56N 45°35' E 013°41'0 0.0
2017-Nov-11 08:23N 45°35' E 013°41'0 0.0
2017-Nov-11 07:53N 45°35' E 013°41'0 0.0
2017-Nov-11 07:29N 45°35' E 013°41'0 0.0
2017-Nov-11 06:59N 45°35' E 013°41'0 0.0
2017-Nov-11 06:29N 45°35' E 013°41'0 0.0
2017-Nov-11 05:59N 45°35' E 013°41'0 0.0
2017-Nov-11 05:29N 45°35' E 013°41'0 0.0
2017-Nov-11 04:56N 45°35' E 013°41'0 0.0
2017-Nov-11 04:29N 45°35' E 013°41'0 0.0
2017-Nov-11 03:50N 45°35' E 013°41'0 0.0
2017-Nov-11 03:29N 45°35' E 013°41'0 0.0
2017-Nov-11 02:56N 45°35' E 013°41'0 0.0
2017-Nov-11 02:23N 45°35' E 013°41'0 0.0
2017-Nov-11 01:59N 45°35' E 013°41'0 0.0
2017-Nov-11 01:23N 45°35' E 013°41'0 0.0
2017-Nov-11 00:56N 45°35' E 013°41'0 0.0
2017-Nov-11 00:29N 45°35' E 013°41'0 0.0
2017-Nov-10 23:59N 45°35' E 013°41'0 0.0
2017-Nov-10 23:29N 45°35' E 013°41'0 0.0
2017-Nov-10 22:59N 45°35' E 013°41'0 0.0
2017-Nov-10 22:29N 45°35' E 013°41'0 0.0
2017-Nov-10 21:56N 45°35' E 013°41'0 0.0
2017-Nov-10 21:29N 45°35' E 013°41'0 0.0
2017-Nov-10 20:59N 45°35' E 013°41'0 0.0
2017-Nov-10 20:29N 45°35' E 013°41'0 0.0
2017-Nov-10 19:56N 45°35' E 013°41'0 0.0
2017-Nov-10 19:26N 45°35' E 013°41'0 0.0
2017-Nov-10 18:59N 45°35' E 013°41'0 0.1
2017-Nov-10 18:29N 45°35' E 013°41'0 0.1
2017-Nov-10 17:56N 45°35' E 013°41'0 0.0
2017-Nov-10 17:29N 45°35' E 013°41'0 0.0
2017-Nov-10 16:56N 45°35' E 013°41'0 0.0
2017-Nov-10 16:29N 45°35' E 013°41'0 0.0
2017-Nov-10 15:50N 45°35' E 013°41'0 0.0
2017-Nov-10 15:29N 45°35' E 013°41'0 0.0
2017-Nov-10 14:59N 45°35' E 013°41'0 0.0
2017-Nov-10 14:29N 45°35' E 013°41'0 0.0
2017-Nov-10 13:59N 45°35' E 013°41'0 0.0
2017-Nov-10 13:17N 45°35' E 013°41'0 0.0
2017-Nov-10 12:56N 45°35' E 013°41'0 0.0
2017-Nov-10 12:29N 45°35' E 013°41'0 0.0
2017-Nov-10 11:56N 45°35' E 013°41'0 0.0
2017-Nov-10 11:29N 45°35' E 013°41'0 0.0
2017-Nov-10 10:20N 45°35' E 013°41'0 0.0
2017-Nov-10 09:59N 45°35' E 013°41'0 0.0
2017-Nov-10 09:29N 45°35' E 013°41'0 0.0
2017-Nov-10 08:56N 45°35' E 013°41'0 0.0
2017-Nov-10 08:26N 45°35' E 013°41'0 0.0
2017-Nov-10 07:59N 45°35' E 013°41'0 0.0
2017-Nov-10 07:29N 45°35' E 013°41'0 0.0
2017-Nov-10 06:56N 45°35' E 013°41'0 0.0
2017-Nov-10 06:29N 45°35' E 013°41'0 0.0
2017-Nov-10 05:53N 45°35' E 013°41'0 0.0
2017-Nov-10 05:29N 45°35' E 013°41'0 0.0
2017-Nov-10 04:50N 45°35' E 013°41'0 0.0
2017-Nov-10 04:29N 45°35' E 013°41'0 0.0
2017-Nov-10 03:59N 45°35' E 013°41'0 0.0
2017-Nov-10 03:20N 45°35' E 013°41'0 0.0
2017-Nov-10 02:56N 45°35' E 013°41'0 0.0
2017-Nov-10 02:29N 45°35' E 013°41'0 0.0
2017-Nov-10 01:59N 45°35' E 013°41'0 0.0
2017-Nov-10 01:23N 45°35' E 013°41'0 0.0
2017-Nov-10 00:59N 45°35' E 013°41'0 0.0
2017-Nov-10 00:29N 45°35' E 013°41'0 0.1
2017-Nov-09 23:59N 45°35' E 013°41'0 0.0
2017-Nov-09 23:26N 45°35' E 013°41'0 0.0
2017-Nov-09 22:59N 45°35' E 013°41'0 0.0
2017-Nov-09 22:30N 45°35' E 013°41'1 1.6
2017-Nov-09 22:00N 45°35' E 013°40'3 6.5
2017-Nov-09 21:30N 45°35' E 013°35'714.0
2017-Nov-09 21:00N 45°32' E 013°26'816.1
2017-Nov-09 20:30N 45°27' E 013°17'714.6
2017-Nov-09 20:00N 45°21' E 013°12'816.5
2017-Nov-09 19:30N 45°13' E 013°15'816.3
2017-Nov-09 19:00N 45°05' E 013°17'816.1
2017-Nov-09 18:30N 44°57' E 013°22'816.3
2017-Nov-09 18:00N 44°50' E 013°28'816.3
2017-Nov-09 17:30N 44°43' E 013°35'816.3
2017-Nov-09 17:00N 44°37' E 013°41'816.2
2017-Nov-09 16:30N 44°30' E 013°47'816.3
2017-Nov-09 16:00N 44°23' E 013°53'816.4
2017-Nov-09 15:30N 44°16' E 013°59'39812.4
2017-Nov-08 07:25N 37°49' E 015°60'717.3
2017-Nov-08 07:00N 37°48' E 015°51'1714.6
2017-Nov-08 05:52N 37°58' E 015°33'617.0
2017-Nov-08 05:30N 38°04' E 015°34'713.3
2017-Nov-08 05:00N 38°10' E 015°35'611.1
2017-Nov-08 04:29N 38°15' E 015°39'4 8.9
2017-Nov-08 04:00N 38°20' E 015°39'611.8
2017-Nov-08 03:30N 38°24' E 015°34'815.5
2017-Nov-08 03:00N 38°29' E 015°27'817.0
2017-Nov-08 02:30N 38°35' E 015°19'816.6
2017-Nov-08 02:00N 38°41' E 015°12'816.6
2017-Nov-08 01:30N 38°47' E 015°04'816.8
2017-Nov-08 01:00N 38°53' E 014°56'2416.3
2017-Nov-07 23:33N 39°08' E 014°33'116.3
2017-Nov-07 23:29N 39°09' E 014°32'  
Track history (hours):
 
Tides and Currents Weather Stations Pressure Air Temp Water Temp Dewpoint Dewpoint Depression Visibility Wind Speed Wind Dir Waves Ship Positions

Brooklands

Last reported at 2017-Nov-17 03:51 UTC. Time now 2017-Nov-17 19:40 UTC.
Position N 31°03' E 032°19'.

Length 199 m; draft 8.9 m.

Type: Cargo ship. MMSI: 636017767.

Date/timePositionNaut miles runAvg speedWind from/ knotsBaromVisibWave heightAir tempDewpointWater temp
2017-Nov-17 03:51N 31°03' E 032°19'17 7.3
2017-Nov-17 01:35N 31°19' E 032°22'3 0.6
2017-Nov-16 20:28N 31°22' E 032°20'0 0.0
2017-Nov-16 19:58N 31°22' E 032°20'0 0.0
2017-Nov-16 18:04N 31°22' E 032°20'0 0.6
2017-Nov-16 17:57N 31°22' E 032°20'5 6.6
2017-Nov-16 17:12N 31°26' E 032°17'412.3
2017-Nov-16 16:53N 31°30' E 032°15'513.9
2017-Nov-16 16:30N 31°33' E 032°10'816.8
2017-Nov-16 16:00N 31°39' E 032°03'918.2
2017-Nov-16 15:30N 31°46' E 031°55'1018.5
2017-Nov-16 14:58N 31°51' E 031°46'1018.5
2017-Nov-16 14:25N 31°59' E 031°38'  
2017-Nov-13 02:00N 45°33' E 013°44'0 0.0
2017-Nov-13 01:30N 45°33' E 013°44'0 0.0
2017-Nov-13 01:00N 45°33' E 013°44'0 0.0
2017-Nov-13 00:30N 45°33' E 013°44'0 0.0
2017-Nov-13 00:00N 45°33' E 013°44'0 0.0
2017-Nov-12 23:30N 45°33' E 013°44'0 0.0
2017-Nov-12 23:00N 45°33' E 013°44'0 0.0
2017-Nov-12 22:27N 45°33' E 013°44'0 0.0
2017-Nov-12 22:00N 45°33' E 013°44'0 0.0
2017-Nov-12 21:30N 45°33' E 013°44'0 0.0
2017-Nov-12 21:00N 45°33' E 013°44'0 0.0
2017-Nov-12 20:30N 45°33' E 013°44'0 0.0
2017-Nov-12 20:00N 45°33' E 013°44'0 0.0
2017-Nov-12 19:30N 45°33' E 013°44'0 0.0
2017-Nov-12 19:00N 45°33' E 013°44'0 0.0
2017-Nov-12 18:30N 45°33' E 013°44'0 0.0
2017-Nov-12 18:00N 45°33' E 013°44'0 0.0
2017-Nov-12 17:30N 45°33' E 013°44'0 0.0
2017-Nov-12 17:00N 45°33' E 013°44'0 0.0
2017-Nov-12 16:30N 45°33' E 013°44'0 0.0
2017-Nov-12 16:00N 45°33' E 013°44'0 0.0
2017-Nov-12 15:27N 45°33' E 013°44'0 0.0
2017-Nov-12 15:00N 45°33' E 013°44'0 0.0
2017-Nov-12 14:30N 45°33' E 013°44'0 0.0
2017-Nov-12 14:00N 45°33' E 013°44'0 0.0
2017-Nov-12 13:30N 45°33' E 013°44'0 0.0
2017-Nov-12 13:00N 45°33' E 013°44'0 0.0
2017-Nov-12 12:30N 45°33' E 013°44'0 0.0
2017-Nov-12 12:00N 45°33' E 013°44'0 0.0
2017-Nov-12 11:27N 45°33' E 013°44'0 0.0
2017-Nov-12 10:57N 45°33' E 013°44'0 0.0
2017-Nov-12 10:30N 45°33' E 013°44'0 0.0
2017-Nov-12 10:00N 45°33' E 013°44'0 0.0
2017-Nov-12 09:30N 45°33' E 013°44'0 0.0
2017-Nov-12 08:57N 45°33' E 013°44'0 0.0
2017-Nov-12 08:30N 45°33' E 013°44'0 0.0
2017-Nov-12 07:51N 45°33' E 013°44'0 0.0
2017-Nov-12 07:30N 45°33' E 013°44'0 0.0
2017-Nov-12 07:00N 45°33' E 013°44'0 0.0
2017-Nov-12 06:21N 45°33' E 013°44'0 0.0
2017-Nov-12 05:54N 45°33' E 013°44'0 0.0
2017-Nov-12 05:30N 45°33' E 013°44'0 0.0
2017-Nov-12 05:00N 45°33' E 013°44'0 0.0
2017-Nov-12 04:27N 45°33' E 013°44'0 0.0
2017-Nov-12 04:00N 45°33' E 013°44'0 0.0
2017-Nov-12 03:30N 45°33' E 013°44'0 0.0
2017-Nov-12 03:00N 45°33' E 013°44'0 0.0
2017-Nov-12 02:30N 45°33' E 013°44'0 0.0
2017-Nov-12 02:00N 45°33' E 013°44'0 0.0
2017-Nov-12 01:30N 45°33' E 013°44'0 0.0
2017-Nov-12 00:54N 45°33' E 013°44'0 0.0
2017-Nov-12 00:30N 45°33' E 013°44'0 0.0
2017-Nov-11 23:57N 45°33' E 013°44'0 0.0
2017-Nov-11 23:24N 45°33' E 013°44'0 0.0
2017-Nov-11 23:00N 45°33' E 013°44'0 0.0
2017-Nov-11 22:30N 45°33' E 013°44'0 0.0
2017-Nov-11 22:00N 45°33' E 013°44'0 0.0
2017-Nov-11 21:30N 45°33' E 013°44'0 0.0
2017-Nov-11 20:57N 45°33' E 013°44'0 0.0
2017-Nov-11 20:30N 45°33' E 013°44'0 0.0
2017-Nov-11 20:00N 45°33' E 013°44'0 0.0
2017-Nov-11 19:30N 45°33' E 013°44'0 0.0
2017-Nov-11 19:00N 45°33' E 013°44'0 0.0
2017-Nov-11 18:30N 45°33' E 013°44'0 0.0
2017-Nov-11 18:00N 45°33' E 013°44'1 2.0
2017-Nov-11 17:31N 45°33' E 013°43'2 3.4
2017-Nov-11 17:00N 45°34' E 013°41'1 1.2
2017-Nov-11 16:23N 45°35' E 013°41'0 0.0
2017-Nov-11 15:53N 45°35' E 013°41'0 0.0
2017-Nov-11 15:20N 45°35' E 013°41'0 0.0
2017-Nov-11 14:59N 45°35' E 013°41'0 0.0
2017-Nov-11 14:29N 45°35' E 013°41'0 0.0
2017-Nov-11 13:59N 45°35' E 013°41'0 0.0
2017-Nov-11 13:26N 45°35' E 013°41'0 0.0
2017-Nov-11 12:56N 45°35' E 013°41'0 0.0
2017-Nov-11 12:26N 45°35' E 013°41'0 0.0
2017-Nov-11 11:44N 45°35' E 013°41'0 0.0
2017-Nov-11 11:26N 45°35' E 013°41'0 0.0
2017-Nov-11 10:56N 45°35' E 013°41'0 0.0
2017-Nov-11 10:26N 45°35' E 013°41'0 0.0
2017-Nov-11 09:50N 45°35' E 013°41'0 0.0
2017-Nov-11 09:29N 45°35' E 013°41'0 0.0
2017-Nov-11 08:56N 45°35' E 013°41'0 0.0
2017-Nov-11 08:23N 45°35' E 013°41'0 0.0
2017-Nov-11 07:53N 45°35' E 013°41'0 0.0
2017-Nov-11 07:29N 45°35' E 013°41'0 0.0
2017-Nov-11 06:59N 45°35' E 013°41'0 0.0
2017-Nov-11 06:29N 45°35' E 013°41'0 0.0
2017-Nov-11 05:59N 45°35' E 013°41'0 0.0
2017-Nov-11 05:29N 45°35' E 013°41'0 0.0
2017-Nov-11 04:56N 45°35' E 013°41'0 0.0
2017-Nov-11 04:29N 45°35' E 013°41'0 0.0
2017-Nov-11 03:50N 45°35' E 013°41'0 0.0
2017-Nov-11 03:29N 45°35' E 013°41'0 0.0
2017-Nov-11 02:56N 45°35' E 013°41'0 0.0
2017-Nov-11 02:23N 45°35' E 013°41'0 0.0
2017-Nov-11 01:59N 45°35' E 013°41'0 0.0
2017-Nov-11 01:23N 45°35' E 013°41'0 0.0
2017-Nov-11 00:56N 45°35' E 013°41'0 0.0
2017-Nov-11 00:29N 45°35' E 013°41'0 0.0
2017-Nov-10 23:59N 45°35' E 013°41'0 0.0
2017-Nov-10 23:29N 45°35' E 013°41'0 0.0
2017-Nov-10 22:59N 45°35' E 013°41'0 0.0
2017-Nov-10 22:29N 45°35' E 013°41'0 0.0
2017-Nov-10 21:56N 45°35' E 013°41'0 0.0
2017-Nov-10 21:29N 45°35' E 013°41'0 0.0
2017-Nov-10 20:59N 45°35' E 013°41'0 0.0
2017-Nov-10 20:29N 45°35' E 013°41'0 0.0
2017-Nov-10 19:56N 45°35' E 013°41'0 0.0
2017-Nov-10 19:26N 45°35' E 013°41'0 0.0
2017-Nov-10 18:59N 45°35' E 013°41'0 0.1
2017-Nov-10 18:29N 45°35' E 013°41'0 0.1
2017-Nov-10 17:56N 45°35' E 013°41'0 0.0
2017-Nov-10 17:29N 45°35' E 013°41'0 0.0
2017-Nov-10 16:56N 45°35' E 013°41'0 0.0
2017-Nov-10 16:29N 45°35' E 013°41'0 0.0
2017-Nov-10 15:50N 45°35' E 013°41'0 0.0
2017-Nov-10 15:29N 45°35' E 013°41'0 0.0
2017-Nov-10 14:59N 45°35' E 013°41'0 0.0
2017-Nov-10 14:29N 45°35' E 013°41'0 0.0
2017-Nov-10 13:59N 45°35' E 013°41'0 0.0
2017-Nov-10 13:17N 45°35' E 013°41'0 0.0
2017-Nov-10 12:56N 45°35' E 013°41'0 0.0
2017-Nov-10 12:29N 45°35' E 013°41'0 0.0
2017-Nov-10 11:56N 45°35' E 013°41'0 0.0
2017-Nov-10 11:29N 45°35' E 013°41'0 0.0
2017-Nov-10 10:20N 45°35' E 013°41'0 0.0
2017-Nov-10 09:59N 45°35' E 013°41'0 0.0
2017-Nov-10 09:29N 45°35' E 013°41'0 0.0
2017-Nov-10 08:56N 45°35' E 013°41'0 0.0
2017-Nov-10 08:26N 45°35' E 013°41'0 0.0
2017-Nov-10 07:59N 45°35' E 013°41'0 0.0
2017-Nov-10 07:29N 45°35' E 013°41'0 0.0
2017-Nov-10 06:56N 45°35' E 013°41'0 0.0
2017-Nov-10 06:29N 45°35' E 013°41'0 0.0
2017-Nov-10 05:53N 45°35' E 013°41'0 0.0
2017-Nov-10 05:29N 45°35' E 013°41'0 0.0
2017-Nov-10 04:50N 45°35' E 013°41'0 0.0
2017-Nov-10 04:29N 45°35' E 013°41'0 0.0
2017-Nov-10 03:59N 45°35' E 013°41'0 0.0
2017-Nov-10 03:20N 45°35' E 013°41'0 0.0
2017-Nov-10 02:56N 45°35' E 013°41'0 0.0
2017-Nov-10 02:29N 45°35' E 013°41'0 0.0
2017-Nov-10 01:59N 45°35' E 013°41'0 0.0
2017-Nov-10 01:23N 45°35' E 013°41'0 0.0
2017-Nov-10 00:59N 45°35' E 013°41'0 0.0
2017-Nov-10 00:29N 45°35' E 013°41'0 0.1
2017-Nov-09 23:59N 45°35' E 013°41'0 0.0
2017-Nov-09 23:26N 45°35' E 013°41'0 0.0
2017-Nov-09 22:59N 45°35' E 013°41'0 0.0
2017-Nov-09 22:30N 45°35' E 013°41'1 1.6
2017-Nov-09 22:00N 45°35' E 013°40'3 6.5
2017-Nov-09 21:30N 45°35' E 013°35'714.0
2017-Nov-09 21:00N 45°32' E 013°26'816.1
2017-Nov-09 20:30N 45°27' E 013°17'714.6
2017-Nov-09 20:00N 45°21' E 013°12'816.5
2017-Nov-09 19:30N 45°13' E 013°15'816.3
2017-Nov-09 19:00N 45°05' E 013°17'816.1
2017-Nov-09 18:30N 44°57' E 013°22'816.3
2017-Nov-09 18:00N 44°50' E 013°28'816.3
2017-Nov-09 17:30N 44°43' E 013°35'816.3
2017-Nov-09 17:00N 44°37' E 013°41'816.2
2017-Nov-09 16:30N 44°30' E 013°47'816.3
2017-Nov-09 16:00N 44°23' E 013°53'816.4
2017-Nov-09 15:30N 44°16' E 013°59'39812.4
2017-Nov-08 07:25N 37°49' E 015°60'717.3
2017-Nov-08 07:00N 37°48' E 015°51'1714.6
2017-Nov-08 05:52N 37°58' E 015°33'617.0
2017-Nov-08 05:30N 38°04' E 015°34'713.3
2017-Nov-08 05:00N 38°10' E 015°35'611.1
2017-Nov-08 04:29N 38°15' E 015°39'4 8.9
2017-Nov-08 04:00N 38°20' E 015°39'611.8
2017-Nov-08 03:30N 38°24' E 015°34'815.5
2017-Nov-08 03:00N 38°29' E 015°27'817.0
2017-Nov-08 02:30N 38°35' E 015°19'816.6
2017-Nov-08 02:00N 38°41' E 015°12'816.6
2017-Nov-08 01:30N 38°47' E 015°04'816.8
2017-Nov-08 01:00N 38°53' E 014°56'2416.3
2017-Nov-07 23:33N 39°08' E 014°33'116.3
2017-Nov-07 23:29N 39°09' E 014°32'  

Dump ship's entire track history